createdAt,value
2023-09-18T00:01:56.265Z,3.30
2023-09-18T00:04:23.976Z,3.53
2023-09-18T00:06:52.945Z,3.20
2023-09-18T00:09:20.599Z,3.47
2023-09-18T00:11:48.573Z,3.25
2023-09-18T00:14:16.185Z,3.42
2023-09-18T00:16:57.647Z,3.50
2023-09-18T00:19:26.178Z,3.75
2023-09-18T00:21:55.563Z,3.20
2023-09-18T00:24:23.512Z,3.20
2023-09-18T00:26:53.917Z,3.47
2023-09-18T00:29:21.748Z,3.35
2023-09-18T00:31:49.483Z,3.63
2023-09-18T00:34:17.161Z,3.42
2023-09-18T00:36:45.360Z,3.85
2023-09-18T00:39:15.372Z,3.00
2023-09-18T00:41:43.741Z,3.38
2023-09-18T00:44:11.419Z,3.58
2023-09-18T00:46:39.102Z,3.38
2023-09-18T00:49:06.811Z,3.33
2023-09-18T00:51:34.494Z,3.60
2023-09-18T00:54:02.385Z,3.65
2023-09-18T00:56:31.361Z,3.22
2023-09-18T00:58:59.100Z,3.25
2023-09-18T01:01:27.135Z,3.40
2023-09-18T01:03:55.147Z,3.63
2023-09-18T01:06:22.889Z,3.55
2023-09-18T01:08:54.479Z,3.33
2023-09-18T01:11:28.602Z,3.67
2023-09-18T01:14:04.817Z,3.10
2023-09-18T01:16:37.037Z,3.30
2023-09-18T01:19:05.053Z,3.58
2023-09-18T01:21:32.751Z,3.65
2023-09-18T01:24:01.708Z,3.10
2023-09-18T01:26:29.439Z,3.40
2023-09-18T01:28:57.262Z,3.22
2023-09-18T01:31:27.495Z,3.30
2023-09-18T01:33:55.908Z,3.05
2023-09-18T01:36:23.897Z,3.25
2023-09-18T01:38:52.347Z,3.53
2023-09-18T01:41:21.832Z,3.47
2023-09-18T01:43:49.507Z,3.63
2023-09-18T01:46:17.486Z,3.45
2023-09-18T01:48:48.366Z,3.30
2023-09-18T01:51:16.405Z,3.40
2023-09-18T01:53:45.040Z,3.10
2023-09-18T01:56:12.735Z,3.50
2023-09-18T01:58:41.730Z,3.53
2023-09-18T02:01:10.185Z,3.50
2023-09-18T02:04:09.032Z,3.67
2023-09-18T02:06:30.413Z,3.45
2023-09-18T02:08:58.832Z,3.50
2023-09-18T02:11:26.767Z,3.70
2023-09-18T02:13:55.783Z,3.40
2023-09-18T02:16:25.237Z,3.53
2023-09-18T02:18:53.177Z,3.88
2023-09-18T02:21:22.413Z,3.50
2023-09-18T02:23:51.458Z,3.67
2023-09-18T02:26:19.209Z,3.30
2023-09-18T02:28:46.894Z,3.58
2023-09-18T02:31:16.170Z,3.40
2023-09-18T02:33:44.914Z,3.33
2023-09-18T02:36:12.563Z,3.30
2023-09-18T02:38:40.247Z,3.25
2023-09-18T02:41:07.948Z,3.50
2023-09-18T02:43:35.581Z,3.22
2023-09-18T02:46:03.318Z,3.65
2023-09-18T02:48:32.346Z,3.35
2023-09-18T02:51:03.364Z,3.65
2023-09-18T02:53:31.438Z,3.50
2023-09-18T02:56:00.850Z,3.45
2023-09-18T02:58:30.361Z,4.00
2023-09-18T03:00:59.338Z,3.22
2023-09-18T03:03:27.144Z,3.65
2023-09-18T03:06:04.065Z,3.20
2023-09-18T03:08:31.888Z,3.78
2023-09-18T03:10:59.649Z,3.88
2023-09-18T03:13:28.670Z,3.72
2023-09-18T03:15:57.237Z,3.88
2023-09-18T03:18:24.968Z,3.60
2023-09-18T03:20:52.657Z,3.97
2023-09-18T03:23:21.682Z,3.67
2023-09-18T03:25:52.096Z,4.00
2023-09-18T03:28:20.171Z,4.13
2023-09-18T03:30:47.795Z,4.13
2023-09-18T03:33:15.419Z,3.92
2023-09-18T03:35:50.223Z,4.07
2023-09-18T03:38:18.176Z,4.10
2023-09-18T03:40:47.153Z,3.72
2023-09-18T03:43:14.829Z,4.10
2023-09-18T03:45:43.294Z,4.43
2023-09-18T03:48:11.432Z,3.90
2023-09-18T03:50:39.800Z,4.20
2023-09-18T03:53:08.090Z,3.90
2023-09-18T03:55:35.876Z,4.28
2023-09-18T03:58:06.176Z,4.07
2023-09-18T04:00:33.810Z,4.80
2023-09-18T04:03:01.594Z,4.20
2023-09-18T04:05:29.546Z,4.50
2023-09-18T04:07:57.252Z,4.10
2023-09-18T04:10:25.405Z,4.50
2023-09-18T04:12:53.614Z,4.00
2023-09-18T04:15:23.742Z,4.05
2023-09-18T04:17:51.444Z,4.25
2023-09-18T04:20:20.008Z,4.47
2023-09-18T04:22:50.836Z,4.03
2023-09-18T04:25:20.462Z,3.88
2023-09-18T04:27:51.106Z,4.53
2023-09-18T04:30:20.775Z,4.30
2023-09-18T04:32:53.096Z,4.18
2023-09-18T04:35:20.965Z,4.07
2023-09-18T04:37:49.313Z,4.20
2023-09-18T04:40:17.159Z,3.72
2023-09-18T04:42:44.840Z,4.18
2023-09-18T04:45:12.560Z,4.40
2023-09-18T04:47:40.323Z,4.38
2023-09-18T04:50:13.587Z,4.35
2023-09-18T04:52:43.507Z,3.97
2023-09-18T04:55:12.190Z,4.40
2023-09-18T04:57:40.149Z,4.53
2023-09-18T05:00:16.957Z,4.00
2023-09-18T05:02:45.970Z,4.15
2023-09-18T05:05:15.719Z,3.92
2023-09-18T05:07:44.296Z,3.97
2023-09-18T05:10:12.136Z,3.90
2023-09-18T05:12:41.497Z,4.22
2023-09-18T05:15:10.736Z,4.50
2023-09-18T05:17:43.774Z,4.28
2023-09-18T05:20:15.097Z,4.28
2023-09-18T05:22:44.392Z,4.00
2023-09-18T05:25:12.263Z,4.13
2023-09-18T05:27:45.136Z,4.40
2023-09-18T05:30:16.186Z,3.90
2023-09-18T05:32:45.357Z,3.92
2023-09-18T05:35:14.004Z,4.30
2023-09-18T05:37:44.837Z,4.70
2023-09-18T05:40:13.538Z,4.45
2023-09-18T05:42:44.098Z,3.63
2023-09-18T05:45:12.395Z,4.22
2023-09-18T05:47:40.332Z,4.13
2023-09-18T05:50:09.782Z,4.68
2023-09-18T05:52:37.632Z,4.40
2023-09-18T05:55:07.972Z,4.20
2023-09-18T05:57:36.107Z,4.13
2023-09-18T06:00:04.009Z,4.20
2023-09-18T06:02:31.711Z,4.47
2023-09-18T06:05:01.214Z,3.97
2023-09-18T06:07:29.203Z,4.18
2023-09-18T06:09:56.925Z,4.20
2023-09-18T06:12:26.978Z,3.97
2023-09-18T06:14:54.666Z,4.15
2023-09-18T06:17:22.437Z,4.30
2023-09-18T06:19:50.193Z,3.95
2023-09-18T06:22:17.863Z,4.45
2023-09-18T06:24:45.558Z,4.60
2023-09-18T06:27:13.283Z,4.55
2023-09-18T06:29:44.057Z,4.15
2023-09-18T06:32:11.702Z,3.65
2023-09-18T06:34:39.432Z,4.38
2023-09-18T06:37:08.705Z,3.78
2023-09-18T06:39:37.262Z,4.53
2023-09-18T06:42:05.274Z,4.45
2023-09-18T06:44:32.995Z,4.25
2023-09-18T06:47:02.028Z,4.28
2023-09-18T06:49:29.676Z,3.80
2023-09-18T06:51:57.370Z,4.20
2023-09-18T06:54:25.005Z,3.80
2023-09-18T06:56:52.756Z,4.35
2023-09-18T06:59:20.528Z,4.00
2023-09-18T07:01:48.279Z,3.58
2023-09-18T07:04:17.388Z,4.20
2023-09-18T07:06:45.107Z,4.18
2023-09-18T07:09:13.546Z,4.22
2023-09-18T07:11:41.379Z,3.78
2023-09-18T07:14:09.268Z,4.00
2023-09-18T07:16:37.010Z,4.50
2023-09-18T07:19:05.676Z,3.88
2023-09-18T07:21:36.377Z,3.70
2023-09-18T07:24:04.118Z,3.90
2023-09-18T07:26:32.461Z,3.55
2023-09-18T07:29:02.478Z,4.00
2023-09-18T07:31:30.562Z,3.60
2023-09-18T07:33:58.494Z,3.60
2023-09-18T07:36:26.187Z,3.65
2023-09-18T07:38:55.528Z,4.05
2023-09-18T07:41:23.641Z,3.70
2023-09-18T07:43:51.475Z,3.70
2023-09-18T07:46:19.228Z,3.58
2023-09-18T07:48:47.164Z,3.47
2023-09-18T07:51:17.127Z,3.83
2023-09-18T07:53:45.429Z,3.50
2023-09-18T07:56:14.606Z,3.53
2023-09-18T07:58:42.267Z,3.55
2023-09-18T08:01:11.201Z,3.58
2023-09-18T08:03:39.443Z,3.78
2023-09-18T08:06:07.210Z,3.80
2023-09-18T08:08:34.866Z,3.42
2023-09-18T08:11:09.964Z,3.42
2023-09-18T08:13:39.396Z,3.22
2023-09-18T08:16:08.908Z,3.33
2023-09-18T08:18:36.970Z,3.70
2023-09-18T08:21:05.787Z,3.40
2023-09-18T08:23:33.746Z,3.97
2023-09-18T08:26:02.175Z,3.15
2023-09-18T08:28:29.840Z,3.35
2023-09-18T08:30:59.781Z,3.58
2023-09-18T08:33:27.616Z,3.40
2023-09-18T08:35:55.577Z,3.50
2023-09-18T08:38:23.222Z,3.30
2023-09-18T08:40:51.613Z,3.13
2023-09-18T08:43:20.092Z,3.30
2023-09-18T08:45:52.530Z,3.10
2023-09-18T08:48:22.455Z,3.20
2023-09-18T08:50:50.722Z,2.90
2023-09-18T08:53:18.518Z,2.63
2023-09-18T08:55:46.246Z,3.08
